RJTL(METAR)
03/23 14:00
METAR RJTL 230500Z VRB05KT 9999 FEW030 SCT180 BKN200 14/M05 Q1014
RMK 2CU030 3AC180 A2996=
戻る
トップページへ戻る
IMOC Co,.Ltd.